This is the latest recevied weather packets stored in our database for station/object OE-6072. If no packets are shown the sender has not sent any weather packets the latest 10 day(s).
| Time | Temp. | Humidity | Pressure | Rain* | Wind** | Luminosity | Snow |
|---|---|---|---|---|---|---|---|
| 1787814674 | 17.22° C | 81% | 1018.4 hPa | - | - | - | - |
| 1787812874 | 16.67° C | 83% | 1018.7 hPa | - | - | - | - |
| 1787811313 | 15.56° C | 88% | 1020.2 hPa | - | - | - | - |
| 1787809274 | 13.89° C | 93% | 1020.6 hPa | - | - | - | - |
| 1787807474 | 13.89° C | 93% | 1020.7 hPa | - | - | - | - |
| 1787805673 | 13.89° C | 93% | 1020.7 hPa | - | - | - | - |
| 1787803874 | 14.44° C | 92% | 1020.5 hPa | - | - | - | - |
| 1787800274 | 14.44° C | 91% | 1019.4 hPa | - | - | - | - |
| 1787798473 | 14.44° C | 91% | 1019.3 hPa | - | - | - | - |
| 1787796674 | 15° C | 89% | 1019.2 hPa | - | - | - | - |
| 1787794874 | 15.56° C | 88% | 1019.1 hPa | - | - | - | - |
| 1787793074 | 16.11° C | 86% | 1018.9 hPa | - | - | - | - |
| 1787791274 | 16.11° C | 86% | 1018.9 hPa | - | - | - | - |
| 1787789473 | 16.11° C | 87% | 1018.9 hPa | - | - | - | - |
| 1787787674 | 16.11° C | 88% | 1018.9 hPa | - | - | - | - |
| 1787784074 | 17.22° C | 83% | 1018.6 hPa | - | - | - | - |
| 1787782275 | 17.22° C | 83% | 1018.5 hPa | - | - | - | - |
| 1787780475 | 17.22° C | 83% | 1018.5 hPa | - | - | - | - |
| 1787778674 | 18.33° C | 79% | 1018.2 hPa | - | - | - | - |
| 1787776874 | 18.33° C | 79% | 1018.2 hPa | - | - | - | - |
| 1787775075 | 18.89° C | 78% | 1018 hPa | - | - | - | - |
| 1787773274 | 19.44° C | 77% | 1017.9 hPa | - | - | - | - |
| 1787771474 | 20° C | 72% | 1017.6 hPa | - | - | - | - |
| 1787769674 | 20.56° C | 72% | 1016.4 hPa | - | - | - | - |
| 1787767875 | 21.67° C | 67% | 1016.1 hPa | - | - | - | - |
* Rain since midnight (hover to see other rain measurements)
** Current wind speed in m/s (hover to see current wind gust speed)